Latest Weather Observations for Mawson*

IDT60801

Issued at 7:31 pm EST Monday 25 July 2016 (issued every 30 minutes, with the page automatically refreshed every 10 minutes)

About weather observations | Map of weather stations | Latest weather observations for ANT | Other Formats
Station Details ID: 300001 Name: MAWSON Lat: -67.60 Lon: 62.88 Height: 9.9 m
Data from the previous 72 hours. | See also: Recent months at Mawson*
Date/Time
EST
Temp
°C
App
Temp
°C
Dew
Point
°C
Rel
Hum
%
Delta-T
°C
Wind Press
QNH
hPa
Press
MSL
hPa
Rain since
9am
mm
Dir  Spd
km/h
Gust
km/h
Spd
kts
Gust
kts
25/07:30pm -22.5 -35.8 -29.0 55 - SE 50 63 27 34 988.2 - -
25/07:00pm -22.7 -36.8 -29.0 56 - SE 54 65 29 35 988.2 988.4 -
25/06:30pm -22.7 -37.7 -28.8 57 - SE 59 69 32 37 988.4 - -
25/06:00pm -22.6 -38.0 -28.6 58 - SE 61 70 33 38 988.4 - -
25/05:46pm -22.6 -37.6 -28.9 56 - SE 59 78 32 42 988.5 - -
25/05:30pm -22.4 -37.8 -28.7 57 - SE 61 72 33 39 988.4 - -
25/05:00pm -22.2 -37.2 -28.6 56 - SE 59 70 32 38 988.6 - -
25/04:30pm -22.4 -37.8 -27.8 61 - SE 61 70 33 38 988.6 - -
25/04:00pm -22.5 -37.9 -27.6 63 - SE 61 72 33 39 988.4 988.6 -
25/03:30pm -22.9 -39.4 -27.5 66 - SE 67 74 36 40 988.2 - -
25/03:00pm -23.0 -40.1 -27.6 66 - SE 70 82 38 44 988.0 - -
25/02:30pm -23.1 -40.2 -26.6 73 - SE 70 78 38 42 988.1 - -
25/02:00pm -23.2 -41.0 -26.4 75 - SE 74 82 40 44 987.9 - -
25/01:30pm -23.2 -40.7 -26.8 72 - SE 72 82 39 44 987.9 - -
25/01:00pm -23.4 -41.2 -26.4 76 - SE 74 85 40 46 987.9 988.1 -
25/12:30pm -23.3 -40.7 -26.6 74 - SE 72 82 39 44 987.7 - -
25/12:00pm -23.0 -40.1 -27.1 69 - SE 70 80 38 43 987.8 - -
25/11:30am -22.6 -39.7 -27.2 66 - SE 70 78 38 42 987.8 - -
25/11:00am -22.5 -39.6 -27.2 65 - SE 70 80 38 43 987.6 - -
25/10:30am -22.5 -39.6 -27.4 64 - SE 70 80 38 43 987.7 - -
25/10:00am -22.4 -39.3 -27.1 66 - SE 69 76 37 41 987.6 987.8 -
25/09:30am -22.7 -39.2 -27.4 65 - SE 67 76 36 41 987.9 - -
25/09:00am -22.8 -39.7 -27.4 66 - SE 69 80 37 43 987.9 - -
25/08:30am -22.6 -39.1 -27.5 64 - SE 67 74 36 40 987.8 - -
25/08:00am -22.5 -38.3 -27.4 64 - SE 63 72 34 39 987.7 - -
25/07:30am -22.1 -37.9 -27.2 63 - SE 63 70 34 38 987.7 - -
25/07:00am -22.0 -37.4 -27.4 62 - SE 61 69 33 37 987.7 987.9 -
25/06:30am -21.1 -35.2 -28.5 51 - SE 54 61 29 33 987.9 - -
25/06:00am -20.6 -34.3 -27.0 56 - SE 52 59 28 32 987.8 - -
25/05:30am -20.9 -35.3 -26.1 63 - SE 56 63 30 34 987.7 - -
25/05:00am -20.8 -34.8 -25.8 64 - SE 54 59 29 32 987.9 - -
25/04:30am -20.9 -34.5 -26.1 63 - SE 52 59 28 32 987.6 - -
25/04:00am -20.5 -33.4 -25.5 64 - SE 48 54 26 29 987.5 987.7 -
25/03:30am -20.7 -33.2 -26.0 62 - SE 46 54 25 29 987.3 - -
25/03:00am -21.1 -34.7 -25.7 66 - SE 52 57 28 31 987.0 - -
25/02:30am -21.2 -34.1 -26.0 65 - SE 48 54 26 29 987.1 - -
25/02:00am -20.9 -33.4 -25.5 66 - SE 46 50 25 27 986.9 - -
25/01:30am -21.2 -33.3 -25.7 67 - SE 44 50 24 27 986.9 - -
25/01:00am -21.2 -33.1 -26.2 64 - SE 43 50 23 27 987.0 987.2 -
25/12:30am -21.4 -33.5 -26.0 66 - SE 44 50 24 27 986.8 - -
25/12:00am -21.5 -34.7 -25.6 69 - SE 50 56 27 30 986.8 - -
 
Date/Time
EST
Temp
°C
App
Temp
°C
Dew
Point
°C
Rel
Hum
%
Delta-T
°C
Wind Press
QNH
hPa
Press
MSL
hPa
Rain since
9am
mm
Dir  Spd
km/h
Gust
km/h
Spd
kts
Gust
kts
24/11:30pm -21.8 -35.4 -26.2 67 - ESE 52 57 28 31 986.7 - -
24/11:00pm -22.0 -35.3 -26.1 69 - ESE 50 56 27 30 986.5 - -
24/10:30pm -21.3 -34.2 -25.4 69 - SE 48 54 26 29 986.3 - -
24/10:00pm -21.6 -34.5 -25.1 73 - SE 48 54 26 29 986.1 986.3 -
24/09:30pm -21.4 -32.9 -25.9 67 - SSE 41 48 22 26 986.3 - -
24/09:00pm -21.5 -31.9 -26.6 63 - SSE 35 46 19 25 986.3 - -
24/08:30pm -21.2 -32.4 -26.7 61 - SE 39 50 21 27 986.1 - -
24/08:00pm -20.9 -32.5 -28.3 51 - SSE 41 54 22 29 986.0 - -
24/07:30pm -20.9 -32.5 -28.1 52 - SE 41 52 22 28 986.1 - -
24/07:00pm -20.6 -32.8 -28.7 48 - SE 44 50 24 27 985.8 986.0 -
24/06:30pm -22.1 -36.5 -27.7 60 - SE 56 61 30 33 985.9 - -
24/06:00pm -21.5 -35.5 -27.5 58 - SE 54 59 29 32 985.9 - -
24/05:30pm -20.5 -30.3 -26.6 58 - SE 32 43 17 23 986.0 - -
24/05:00pm -20.2 -30.1 -27.3 53 - SE 32 41 17 22 985.5 - -
24/04:30pm -20.4 -32.3 -26.9 56 - SE 43 48 23 26 985.3 - -
24/04:00pm -20.6 -31.0 -27.8 52 - SE 35 43 19 23 985.1 985.3 -
24/03:30pm -20.5 -32.1 -28.2 50 - SE 41 48 22 26 984.9 - -
24/03:00pm -20.6 -32.6 -27.6 53 - SE 43 52 23 28 984.7 - -
24/02:30pm -20.5 -30.6 -28.4 49 - SE 33 39 18 21 984.7 - -
24/02:00pm -20.9 -30.4 -27.9 53 - SE 30 37 16 20 984.3 - -
24/01:30pm -20.0 -29.1 -28.4 47 - SE 28 37 15 20 984.3 - -
24/01:00pm -20.3 -30.2 -28.6 47 - SE 32 41 17 22 984.2 984.4 -
24/12:30pm -20.8 -29.9 -27.8 53 - SE 28 33 15 18 984.3 - -
24/12:00pm -21.2 -31.3 -28.0 54 - SSE 33 43 18 23 984.0 - -
24/11:30am -21.5 -31.6 -28.1 55 - SSE 33 41 18 22 984.2 - -
24/11:00am -22.8 -34.8 -28.6 59 - SSE 43 54 23 29 984.3 - -
24/10:30am -22.9 -35.4 -28.1 62 - SSE 46 57 25 31 984.1 - -
24/10:16am -22.9 -33.8 -29.4 55 - SSE 37 46 20 25 984.1 - -
24/10:00am -19.4 -25.3 -27.4 49 - ESE 11 20 6 11 983.9 984.1 -
24/09:30am -20.6 -29.7 -27.6 53 - ESE 28 35 15 19 983.9 - -
24/09:00am -20.9 -31.3 -27.7 54 - SE 35 41 19 22 983.9 - -
24/08:30am -21.1 -30.6 -29.2 48 - SE 30 39 16 21 983.9 - -
24/08:00am -22.5 -33.3 -29.0 55 - SSE 37 44 20 24 983.6 - -
24/07:30am -21.0 -31.5 -29.3 47 - SE 35 46 19 25 983.6 - -
24/07:00am -21.1 -32.0 -29.6 46 - SE 37 43 20 23 983.6 983.8 -
24/06:30am -22.2 -33.0 -28.0 59 - SSE 37 43 20 23 983.7 - -
24/06:00am -22.8 -34.4 -29.3 55 - SSE 41 50 22 27 983.3 - -
24/05:30am -22.3 -34.5 -28.5 57 - SSE 44 50 24 27 983.5 - -
24/05:00am -22.4 -34.0 -28.9 55 - SSE 41 50 22 27 983.3 - -
24/04:30am -20.2 -29.7 -28.8 46 - SE 30 35 16 19 983.3 - -
24/04:00am -21.5 -33.5 -28.7 52 - SSE 43 48 23 26 983.1 983.3 -
24/03:30am -22.1 -34.6 -28.7 55 - SSE 46 52 25 28 983.1 - -
24/03:00am -21.0 -32.6 -28.0 53 - SSE 41 44 22 24 983.0 - -
24/02:30am -21.8 -34.0 -28.2 56 - SSE 44 50 24 27 982.9 - -
24/02:00am -21.9 -32.7 -28.7 54 - SSE 37 41 20 22 983.0 - -
24/01:30am -21.4 -31.5 -28.8 51 - SSE 33 41 18 22 983.1 - -
24/01:00am -20.9 -30.0 -27.9 53 - SSE 28 35 15 19 982.9 983.1 -
24/12:30am -20.6 -28.6 -27.6 53 - SSE 22 28 12 15 983.1 - -
24/12:00am -19.9 -24.4 -26.0 58 - E 4 7 2 4 983.0 - -
 
Date/Time
EST
Temp
°C
App
Temp
°C
Dew
Point
°C
Rel
Hum
%
Delta-T
°C
Wind Press
QNH
hPa
Press
MSL
hPa
Rain since
9am
mm
Dir  Spd
km/h
Gust
km/h
Spd
kts
Gust
kts
23/11:30pm -18.7 -24.2 -26.1 52 - ESE 9 13 5 7 983.0 - -
23/11:00pm -20.5 -30.0 -27.0 56 - SSE 30 33 16 18 983.1 - -
23/10:30pm -19.4 -26.8 -26.5 53 - SSE 19 26 10 14 983.3 - -
23/10:00pm -18.9 -28.0 -26.7 50 - SSE 28 33 15 18 983.3 983.5 -
23/09:30pm -18.9 -27.6 -26.5 51 - SSE 26 39 14 21 983.0 - -
23/09:00pm -18.3 -26.6 -26.8 47 - SSE 24 37 13 20 983.1 - -
23/08:30pm -18.2 -28.0 -25.6 52 - SSE 32 37 17 20 983.0 - -
23/08:00pm -16.8 -25.1 -25.0 49 - SSE 24 30 13 16 982.9 - -
23/07:30pm -16.0 -24.3 -24.2 49 - SE 24 28 13 15 982.9 - -
23/07:00pm -15.5 -24.5 -22.0 57 - ESE 28 33 15 18 982.8 983.0 -
23/06:30pm -15.9 -26.3 -23.7 51 - SE 35 44 19 24 982.5 - -
23/06:00pm -16.2 -28.1 -23.7 52 - SE 43 52 23 28 982.2 - -
23/05:30pm -16.5 -28.5 -23.0 57 - SE 44 50 24 27 982.4 - -
23/05:00pm -16.5 -28.9 -22.8 58 - SE 46 54 25 29 982.2 - -
23/04:30pm -16.4 -27.1 -22.3 60 - SE 37 44 20 24 982.3 - -
23/04:00pm -15.6 -25.9 -21.0 63 - SE 35 46 19 25 982.0 982.2 -
23/03:30pm -15.8 -27.2 -20.7 66 - SE 41 48 22 26 982.1 - -
23/03:00pm -15.4 -27.7 -20.1 67 - SE 46 54 25 29 981.8 - -
23/02:30pm -15.6 -27.3 -19.8 70 - SE 43 54 23 29 982.1 - -
23/02:00pm -15.1 -27.0 -20.0 66 - SE 44 50 24 27 981.8 - -
23/01:30pm -15.2 -27.1 -19.7 68 - SE 44 50 24 27 981.7 - -
23/01:00pm -15.5 -27.8 -19.9 69 - SE 46 54 25 29 981.6 981.8 -
23/12:30pm -15.3 -27.1 -20.2 66 - SE 43 52 23 28 981.8 - -
23/12:00pm -15.3 -27.1 -20.5 64 - SE 43 54 23 29 981.6 - -
23/11:30am -15.5 -27.8 -19.9 69 - SE 46 56 25 30 981.5 - -
23/11:00am -15.4 -27.7 -19.8 69 - SE 46 56 25 30 981.4 - -
23/10:30am -15.6 -27.9 -20.0 69 - SE 46 54 25 29 981.3 - -
23/10:00am -16.0 -30.2 -19.5 74 - SE 56 63 30 34 981.0 981.2 -
23/09:30am -15.5 -29.3 -19.5 71 - SE 54 63 29 34 981.2 - -
23/09:00am -15.6 -29.8 -19.5 72 - SE 56 65 30 35 980.8 - -
23/08:30am -15.3 -29.1 -19.2 72 - SE 54 63 29 34 980.7 - -
23/08:00am -14.9 -28.7 -19.0 71 - SE 54 70 29 38 980.7 - -
23/07:30am -14.3 -27.4 -19.4 65 - SE 50 61 27 33 980.3 - -
23/07:00am -14.8 -26.2 -20.8 60 - SE 41 61 22 33 979.7 979.9 -
23/06:54am -14.4 -26.2 -20.2 61 - SE 43 61 23 33 979.9 - -
23/06:30am -14.6 -25.6 -20.4 61 - SSE 39 54 21 29 979.0 - -
23/06:00am -14.9 -26.9 -20.2 64 - SSE 44 61 24 33 977.9 - -
23/05:58am -15.1 -26.9 -20.5 63 - SSE 43 61 23 33 977.9 - -
23/05:43am -15.2 -26.2 -19.7 68 - SSE 39 48 21 26 977.6 - -
23/05:40am -15.3 -30.1 -20.0 67 - SSE 59 78 32 42 977.6 - -
23/05:30am -14.7 -31.5 -21.9 54 - SSE 69 82 37 44 977.1 - -
23/05:00am -14.7 -31.6 -21.5 56 - SSE 70 80 38 43 976.7 - -
23/04:30am -15.0 -32.6 -19.9 66 - SSE 74 85 40 46 976.4 - -
23/04:00am -14.7 -32.4 -20.3 62 - SSE 74 83 40 45 975.9 976.0 -
23/03:30am -15.3 -32.0 -20.5 64 - SSE 69 80 37 43 975.6 - -
23/03:17am -15.1 -31.1 -21.5 58 - SSE 65 83 35 45 975.5 - -
23/03:00am -14.3 -30.6 -20.0 62 - SSE 67 78 36 42 975.5 - -
23/02:30am -15.1 -32.0 -20.5 63 - SSE 70 82 38 44 975.3 - -
23/02:00am -15.3 -32.2 -21.3 60 - SSE 70 85 38 46 975.0 - -
23/01:32am -15.1 -33.1 -20.2 65 - SSE 76 95 41 51 975.3 - -
23/01:30am -14.4 -32.8 -18.6 70 - SE 78 95 42 51 975.2 - -
23/01:15am -14.6 -31.8 -18.2 74 - SE 72 95 39 51 975.3 - -
23/01:00am -15.1 -31.8 -20.0 66 - SE 69 85 37 46 975.4 975.5 -
23/12:52am -15.6 -33.6 -20.6 65 - SE 76 95 41 51 975.2 - -
23/12:30am -14.2 -32.2 -18.4 70 - SE 76 93 41 50 975.0 - -
23/12:01am -14.7 -33.8 -17.7 78 - SE 82 100 44 54 974.8 - -
23/12:00am -15.3 -34.6 -18.4 77 - SE 83 100 45 54 974.8 - -
 
Date/Time
EST
Temp
°C
App
Temp
°C
Dew
Point
°C
Rel
Hum
%
Delta-T
°C
Wind Press
QNH
hPa
Press
MSL
hPa
Rain since
9am
mm
Dir  Spd
km/h
Gust
km/h
Spd
kts
Gust
kts
22/11:55pm -14.9 -33.7 -19.1 70 - SE 80 100 43 54 974.4 - -

Other Formats:

Comma delimited format used in spreadsheet applications
http://www.bom.gov.au/fwo/IDT60803/IDT60803.89564.axf

JavaScript Object Notation format (JSON) in row-major order
http://www.bom.gov.au/fwo/IDT60803/IDT60803.89564.json